This is the latest recevied weather packets stored in our database for station/object IU2PLZ-10. If no packets are shown the sender has not sent any weather packets the latest 10 day(s).
| Time | Temp. | Humidity | Pressure | Rain* | Wind** | Luminosity | Snow |
|---|---|---|---|---|---|---|---|
| 1777709812 | 21.11° C | 40% | 970.5 hPa | - | - | - | - |
| 1777708911 | 21.11° C | 40% | 970.4 hPa | - | - | - | - |
| 1777708011 | 21.11° C | 40% | 970.3 hPa | - | - | - | - |
| 1777707111 | 20° C | 41% | 969.4 hPa | - | - | - | - |
| 1777706211 | 20.56° C | 40% | 970.2 hPa | - | - | - | - |
| 1777705311 | 20° C | 41% | 970.1 hPa | - | - | - | - |
| 1777704411 | 20° C | 43% | 970.3 hPa | - | - | - | - |
| 1777703511 | 20° C | 46% | 970.3 hPa | - | - | - | - |
| 1777702610 | 18.89° C | 46% | 969.3 hPa | - | - | - | - |
| 1777701710 | 18.89° C | 47% | 970 hPa | - | - | - | - |
| 1777700810 | 18.89° C | 48% | 970 hPa | - | - | - | - |
| 1777699910 | 17.78° C | 51% | 969.2 hPa | - | - | - | - |
| 1777699010 | 17.78° C | 54% | 969.9 hPa | - | - | - | - |
| 1777698109 | 16.67° C | 56% | 969.7 hPa | - | - | - | - |
| 1777697209 | 15.56° C | 57% | 969.7 hPa | - | - | - | - |
| 1777696309 | 14.44° C | 57% | 968.8 hPa | - | - | - | - |
| 1777695409 | 13.89° C | 55% | 968.7 hPa | - | - | - | - |
| 1777694509 | 14.44° C | 54% | 969.5 hPa | - | - | - | - |
| 1777693609 | 14.44° C | 54% | 969.4 hPa | - | - | - | - |
| 1777692708 | 13.89° C | 53% | 968.9 hPa | - | - | - | - |
| 1777691808 | 14.44° C | 52% | 969.5 hPa | - | - | - | - |
| 1777690908 | 14.44° C | 52% | 969.5 hPa | - | - | - | - |
| 1777690008 | 13.89° C | 52% | 968.6 hPa | - | - | - | - |
| 1777689108 | 14.44° C | 52% | 969.7 hPa | - | - | - | - |
| 1777688208 | 14.44° C | 52% | 969.8 hPa | - | - | - | - |
* Rain since midnight (hover to see other rain measurements)
** Current wind speed in m/s (hover to see current wind gust speed)